createdAt,value
2022-08-09T00:05:03.208Z,101841.28
2022-08-09T00:10:21.499Z,101845.72
2022-08-09T00:15:26.343Z,101840.44
2022-08-09T00:20:49.981Z,101840.81
2022-08-09T00:25:52.061Z,101840.81
2022-08-09T00:30:53.632Z,101836.50
2022-08-09T00:35:55.948Z,101842.19
2022-08-09T00:40:58.145Z,101840.94
2022-08-09T00:45:59.680Z,101846.03
2022-08-09T00:51:10.255Z,101835.25
2022-08-09T00:56:14.504Z,101842.72
2022-08-09T01:01:20.100Z,101841.88
2022-08-09T01:06:54.629Z,101839.44
2022-08-09T01:12:15.673Z,101847.09
2022-08-09T01:17:19.789Z,101849.91
2022-08-09T01:22:41.069Z,101848.25
2022-08-09T01:27:43.608Z,101848.59
2022-08-09T01:32:54.039Z,101848.13
2022-08-09T01:38:09.405Z,101849.91
2022-08-09T01:43:12.459Z,101844.34
2022-08-09T01:48:15.619Z,101842.69
2022-08-09T01:53:19.538Z,101839.56
2022-08-09T01:58:24.129Z,101843.78
2022-08-09T02:03:29.273Z,101841.28
2022-08-09T02:08:35.478Z,101839.03
2022-08-09T02:13:42.504Z,101839.97
2022-08-09T02:18:57.033Z,101840.91
2022-08-09T02:24:00.041Z,101847.56
2022-08-09T02:29:06.730Z,101856.03
2022-08-09T02:34:25.950Z,101854.94
2022-08-09T02:39:45.420Z,101860.78
2022-08-09T02:45:03.308Z,101860.06
2022-08-09T02:50:07.565Z,101858.63
2022-08-09T02:55:20.795Z,101854.75
2022-08-09T03:00:25.585Z,101861.38
2022-08-09T03:05:28.786Z,101856.88
2022-08-09T03:10:31.361Z,101862.50
2022-08-09T03:15:40.549Z,101852.72
2022-08-09T03:20:55.400Z,101850.19
2022-08-09T03:26:03.531Z,101856.97
2022-08-09T03:31:10.407Z,101856.28
2022-08-09T03:36:27.816Z,101861.63
2022-08-09T03:41:30.143Z,101868.91
2022-08-09T03:46:46.518Z,101876.78
2022-08-09T03:51:58.128Z,101883.00
2022-08-09T03:57:02.285Z,101882.09
2022-08-09T04:02:06.008Z,101895.50
2022-08-09T04:07:09.215Z,101898.38
2022-08-09T04:12:30.467Z,101905.81
2022-08-09T04:17:32.864Z,101904.34
2022-08-09T04:22:34.919Z,101902.09
2022-08-09T04:27:42.582Z,101904.91
2022-08-09T04:32:50.884Z,101916.41
2022-08-09T04:37:52.793Z,101920.09
2022-08-09T04:42:54.892Z,101927.25
2022-08-09T04:48:04.151Z,101925.72
2022-08-09T04:53:13.222Z,101933.69
2022-08-09T04:58:15.105Z,101943.66
2022-08-09T05:03:41.176Z,101946.00
2022-08-09T05:08:43.937Z,101945.81
2022-08-09T05:13:49.309Z,101947.06
2022-08-09T05:18:57.273Z,101958.34
2022-08-09T05:24:02.512Z,101957.31
2022-08-09T05:29:05.493Z,101961.94
2022-08-09T05:34:06.819Z,101956.84
2022-08-09T05:39:28.152Z,101956.94
2022-08-09T05:44:32.889Z,101958.28
2022-08-09T05:50:14.842Z,101962.41
2022-08-09T05:54:57.272Z,101964.88
2022-08-09T06:00:06.134Z,101960.97
2022-08-09T06:05:09.489Z,101954.63
2022-08-09T06:10:15.678Z,101956.84
2022-08-09T06:15:19.400Z,101964.81
2022-08-09T06:20:21.334Z,101955.34
2022-08-09T06:25:23.429Z,101953.34
2022-08-09T06:30:25.174Z,101943.16
2022-08-09T06:35:55.679Z,101946.09
2022-08-09T06:40:49.387Z,101953.66
2022-08-09T06:46:06.207Z,101958.41
2022-08-09T06:51:11.793Z,101952.00
2022-08-09T06:56:13.170Z,101957.53
2022-08-09T07:01:16.265Z,101963.00
2022-08-09T07:06:18.368Z,101967.03
2022-08-09T07:11:23.390Z,101963.91
2022-08-09T07:16:42.610Z,101962.16
2022-08-09T07:21:55.844Z,101959.97
2022-08-09T07:27:01.257Z,101956.75
2022-08-09T07:32:03.562Z,101949.19
2022-08-09T07:37:04.963Z,101951.56
2022-08-09T07:42:12.341Z,101945.72
2022-08-09T07:47:16.268Z,101943.75
2022-08-09T07:52:18.212Z,101938.47
2022-08-09T07:57:21.014Z,101933.97
2022-08-09T08:02:23.649Z,101931.06
2022-08-09T08:08:43.002Z,101924.13
2022-08-09T08:12:46.866Z,101925.19
2022-08-09T08:17:53.790Z,101916.50
2022-08-09T08:22:58.766Z,101906.09
2022-08-09T08:28:03.289Z,101910.72
2022-08-09T08:33:04.641Z,101901.59
2022-08-09T08:38:11.507Z,101912.09
2022-08-09T08:43:14.220Z,101909.25
2022-08-09T08:48:16.847Z,101907.31
2022-08-09T08:53:22.342Z,101905.59
2022-08-09T08:58:27.367Z,101901.84
2022-08-09T09:03:37.089Z,101900.25
2022-08-09T09:08:42.464Z,101902.00
2022-08-09T09:13:57.120Z,101897.53
2022-08-09T09:24:26.485Z,101896.06
2022-08-09T09:29:46.076Z,101905.41
2022-08-09T09:35:10.187Z,101896.09
2022-08-09T09:40:12.384Z,101894.03
2022-08-09T09:45:26.841Z,101890.22
2022-08-09T09:50:49.552Z,101895.28
2022-08-09T09:56:04.482Z,101886.22
2022-08-09T10:01:31.244Z,101891.63
2022-08-09T10:06:42.965Z,101887.78
2022-08-09T10:11:59.573Z,101880.41
2022-08-09T10:17:40.238Z,101880.41
2022-08-09T10:22:33.427Z,101873.38
2022-08-09T10:27:44.910Z,101875.50
2022-08-09T10:32:58.126Z,101868.50
2022-08-09T10:38:01.551Z,101867.91
2022-08-09T10:43:05.396Z,101861.38
2022-08-09T10:48:31.576Z,101860.31
2022-08-09T10:53:54.695Z,101857.22
2022-08-09T10:58:57.844Z,101850.81
2022-08-09T11:04:29.982Z,101858.38
2022-08-09T11:09:37.253Z,101845.94
2022-08-09T11:14:44.642Z,101843.88
2022-08-09T11:20:11.981Z,101838.13
2022-08-09T11:25:25.995Z,101835.25
2022-08-09T11:30:38.520Z,101843.22
2022-08-09T11:35:49.548Z,101838.78
2022-08-09T11:40:52.823Z,101834.25
2022-08-09T11:45:58.080Z,101823.00
2022-08-09T11:52:49.559Z,101821.16
2022-08-09T11:56:34.481Z,101823.38
2022-08-09T12:02:18.433Z,101811.09
2022-08-09T12:07:09.630Z,101809.00
2022-08-09T12:12:20.282Z,101803.41
2022-08-09T12:17:41.262Z,101806.13
2022-08-09T12:22:46.509Z,101786.75
2022-08-09T12:29:11.736Z,101789.13
2022-08-09T12:33:50.946Z,101775.22
2022-08-09T12:38:53.788Z,101768.19
2022-08-09T12:44:04.379Z,101768.00
2022-08-09T12:49:09.049Z,101764.09
2022-08-09T12:54:10.410Z,101755.66
2022-08-09T12:59:13.996Z,101747.22
2022-08-09T13:04:37.683Z,101747.06
2022-08-09T13:09:40.838Z,101740.41
2022-08-09T13:14:48.811Z,101731.13
2022-08-09T13:20:10.009Z,101727.63
2022-08-09T13:25:15.571Z,101721.44
2022-08-09T13:30:58.643Z,101714.00
2022-08-09T13:36:24.549Z,101711.47
2022-08-09T13:41:50.639Z,101700.94
2022-08-09T13:47:13.717Z,101709.22
2022-08-09T13:51:58.684Z,101704.13
2022-08-09T13:57:02.982Z,101693.63
2022-08-09T14:02:08.252Z,101689.63
2022-08-09T14:07:11.421Z,101684.22
2022-08-09T14:12:15.550Z,101691.88
2022-08-09T14:17:17.364Z,101686.25
2022-08-09T14:22:24.356Z,101681.03
2022-08-09T14:27:26.590Z,101678.19
2022-08-09T14:32:30.911Z,101683.59
2022-08-09T14:37:41.311Z,101676.56
2022-08-09T14:42:54.493Z,101674.28
2022-08-09T14:47:58.539Z,101666.47
2022-08-09T14:53:11.632Z,101674.91
2022-08-09T14:58:13.672Z,101675.25
2022-08-09T15:03:16.762Z,101667.50
2022-08-09T15:08:24.009Z,101675.03
2022-08-09T15:13:25.669Z,101671.88
2022-08-09T15:18:31.364Z,101666.03
2022-08-09T15:24:00.839Z,101663.09
2022-08-09T15:28:54.810Z,101663.72
2022-08-09T15:34:04.355Z,101649.00
2022-08-09T15:39:20.480Z,101646.69
2022-08-09T15:44:22.995Z,101640.75
2022-08-09T15:49:24.552Z,101638.03
2022-08-09T15:54:42.993Z,101634.47
2022-08-09T15:59:51.626Z,101628.13
2022-08-09T16:04:53.368Z,101615.03
2022-08-09T16:10:04.934Z,101613.03
2022-08-09T16:16:10.496Z,101624.31
2022-08-09T16:20:30.502Z,101623.75
2022-08-09T16:25:40.417Z,101624.13
2022-08-09T16:30:44.297Z,101628.53
2022-08-09T16:35:57.475Z,101630.41
2022-08-09T16:41:04.021Z,101620.53
2022-08-09T16:46:06.167Z,101629.53
2022-08-09T16:51:14.041Z,101623.41
2022-08-09T16:56:16.070Z,101628.19
2022-08-09T17:01:23.660Z,101627.97
2022-08-09T17:06:32.154Z,101631.22
2022-08-09T17:11:41.589Z,101636.78
2022-08-09T17:16:43.601Z,101633.34
2022-08-09T17:21:46.719Z,101632.78
2022-08-09T17:26:52.042Z,101634.41
2022-08-09T17:31:55.071Z,101638.56
2022-08-09T17:36:56.499Z,101641.91
2022-08-09T17:42:03.783Z,101644.09
2022-08-09T17:47:05.956Z,101638.06
2022-08-09T17:52:22.057Z,101637.72
2022-08-09T17:58:02.409Z,101645.28
2022-08-09T18:02:50.450Z,101653.38
2022-08-09T18:08:00.072Z,101653.97
2022-08-09T18:13:38.815Z,101655.28
2022-08-09T18:18:26.062Z,101651.50
2022-08-09T18:24:09.945Z,101667.13
2022-08-09T18:30:35.828Z,101662.13
2022-08-09T18:34:16.700Z,101664.69
2022-08-09T18:39:25.675Z,101665.06
2022-08-09T18:44:33.756Z,101674.47
2022-08-09T18:49:46.262Z,101675.38
2022-08-09T18:54:52.150Z,101682.34
2022-08-09T18:59:57.591Z,101688.00
2022-08-09T19:05:04.403Z,101696.84
2022-08-09T19:10:17.648Z,101701.66
2022-08-09T19:15:19.487Z,101711.56
2022-08-09T19:20:21.650Z,101720.91
2022-08-09T19:25:41.812Z,101724.31
2022-08-09T19:30:45.480Z,101722.09
2022-08-09T19:35:57.560Z,101729.50
2022-08-09T19:41:01.886Z,101729.94
2022-08-09T19:46:04.116Z,101748.72
2022-08-09T19:51:06.051Z,101752.28
2022-08-09T19:56:07.677Z,101753.91
2022-08-09T20:01:17.518Z,101752.91
2022-08-09T20:06:22.287Z,101762.00
2022-08-09T20:11:42.837Z,101762.19
2022-08-09T20:16:54.358Z,101765.44
2022-08-09T20:22:00.108Z,101770.06
2022-08-09T20:27:08.676Z,101776.66
2022-08-09T20:32:28.705Z,101785.41
2022-08-09T20:38:08.623Z,101791.59
2022-08-09T20:43:00.443Z,101794.81
2022-08-09T20:48:20.913Z,101798.59
2022-08-09T20:53:36.632Z,101806.22
2022-08-09T20:58:43.444Z,101803.63
2022-08-09T21:05:48.912Z,101811.84
2022-08-09T21:09:13.647Z,101807.44
2022-08-09T21:14:16.829Z,101805.03
2022-08-09T21:20:18.756Z,101809.31
2022-08-09T21:25:00.933Z,101800.44
2022-08-09T21:30:02.366Z,101803.59
2022-08-09T21:35:04.253Z,101803.03
2022-08-09T21:40:08.143Z,101795.88
2022-08-09T21:45:17.393Z,101813.91
2022-08-09T21:50:22.973Z,101809.16
2022-08-09T21:55:35.343Z,101829.66
2022-08-09T22:00:37.096Z,101823.06
2022-08-09T22:05:42.340Z,101823.41
2022-08-09T22:11:05.041Z,101823.50
2022-08-09T22:16:08.681Z,101822.09
2022-08-09T22:21:22.390Z,101812.59
2022-08-09T22:26:34.919Z,101815.66
2022-08-09T22:31:44.100Z,101824.16
2022-08-09T22:36:52.036Z,101820.19
2022-08-09T22:41:54.053Z,101838.41
2022-08-09T22:48:11.231Z,101840.09
2022-08-09T22:52:17.872Z,101834.00
2022-08-09T22:57:21.138Z,101832.38
2022-08-09T23:02:23.372Z,101837.16
2022-08-09T23:08:21.944Z,101833.41
2022-08-09T23:13:06.397Z,101830.09
2022-08-09T23:18:14.447Z,101836.44
2022-08-09T23:23:15.802Z,101831.03
2022-08-09T23:28:17.202Z,101841.91
2022-08-09T23:33:19.271Z,101847.66
2022-08-09T23:38:20.825Z,101839.22
2022-08-09T23:43:22.193Z,101837.72
2022-08-09T23:48:23.565Z,101851.63
2022-08-09T23:53:25.630Z,101856.38
2022-08-09T23:58:33.463Z,101856.75
